Time;durP1;ratioP1;P1;durP2;ratioP2;P2;SDS_P1;SDS_P2;PMS_P1;PMS_P2;Temp;Humidity;BMP_temperature;BMP_pressure;BME280_temperature;BME280_humidity;BME280_pressure;Samples;Min_cycle;Max_cycle;Signal;HPM_P1;HPM_P2
2023/06/18 00:03:33;;;;;;;14.00;9.30;;;;;19.30;100759.00;;;;10235474;28;20261;-76
2023/06/18 00:08:35;;;;;;;11.02;8.85;;;;;19.20;100754.00;;;;10243680;28;20217;-75
2023/06/18 00:13:37;;;;;;;14.20;10.00;;;;;19.10;100742.00;;;;10227351;28;20215;-76
2023/06/18 00:18:39;;;;;;;10.13;9.18;;;;;18.90;100746.00;;;;10224093;28;20204;-77
2023/06/18 00:23:41;;;;;;;11.48;9.45;;;;;18.80;100744.00;;;;10238740;28;20300;-76
2023/06/18 00:28:44;;;;;;;10.88;9.65;;;;;18.60;100737.00;;;;10236321;28;20230;-77
2023/06/18 00:33:48;;;;;;;9.73;8.68;;;;;18.60;100734.00;;;;10223815;28;20205;-80
2023/06/18 00:38:51;;;;;;;10.75;8.90;;;;;18.60;100734.00;;;;10249539;28;20744;-80
2023/06/18 00:43:53;;;;;;;11.70;8.88;;;;;18.50;100735.00;;;;10242106;28;20273;-77
2023/06/18 00:48:57;;;;;;;9.30;8.40;;;;;18.50;100726.00;;;;10218557;29;20225;-77
2023/06/18 00:54:00;;;;;;;10.02;9.05;;;;;18.60;100724.00;;;;10221193;28;20478;-76
2023/06/18 00:59:02;;;;;;;9.90;9.00;;;;;18.70;100717.00;;;;10217064;28;20217;-80
2023/06/18 01:04:04;;;;;;;11.18;9.27;;;;;18.70;100706.00;;;;10249577;28;20221;-79
2023/06/18 01:09:08;;;;;;;12.10;8.35;;;;;18.80;100710.00;;;;10242478;28;20516;-77
2023/06/18 01:14:09;;;;;;;11.02;9.45;;;;;18.70;100709.00;;;;10242344;28;20212;-77
2023/06/18 01:19:27;;;;;;;11.88;9.13;;;;;18.60;100701.00;;;;10230376;28;20261;-77
2023/06/18 01:24:36;;;;;;;11.57;9.32;;;;;18.50;100706.00;;;;10224651;28;20235;-77
2023/06/18 01:29:40;;;;;;;9.95;8.90;;;;;18.50;100699.00;;;;10222347;28;20553;-76
2023/06/18 01:34:43;;;;;;;16.00;8.73;;;;;18.40;100695.00;;;;10246593;28;20533;-75
2023/06/18 01:39:56;;;;;;;12.88;9.65;;;;;18.30;100697.00;;;;10248540;28;20210;-75
2023/06/18 01:45:37;;;;;;;18.20;9.27;;;;;18.30;100691.00;;;;10245326;28;20508;-76
2023/06/18 01:50:42;;;;;;;8.65;7.85;;;;;18.20;100688.00;;;;10206391;29;20229;-75
2023/06/18 01:55:45;;;;;;;11.40;8.32;;;;;18.20;100682.00;;;;10233591;28;20198;-76
2023/06/18 02:00:51;;;;;;;9.40;8.50;;;;;18.20;100679.00;;;;10227280;28;20222;-75
2023/06/18 02:05:53;;;;;;;9.40;8.40;;;;;18.20;100666.00;;;;10245900;28;20240;-75
2023/06/18 02:10:55;;;;;;;12.20;8.32;;;;;18.20;100670.00;;;;10248281;28;20225;-75
2023/06/18 02:15:57;;;;;;;13.00;8.40;;;;;18.20;100672.00;;;;10248236;28;20494;-74
2023/06/18 02:21:04;;;;;;;9.85;8.85;;;;;18.10;100673.00;;;;10223733;28;20261;-76
2023/06/18 02:26:08;;;;;;;9.27;8.38;;;;;18.10;100682.00;;;;10230393;28;20205;-76
2023/06/18 02:31:10;;;;;;;10.82;9.10;;;;;17.90;100669.00;;;;10244145;28;20209;-76
2023/06/18 02:36:13;;;;;;;10.23;9.25;;;;;17.80;100673.00;;;;10222406;28;20579;-81
2023/06/18 02:41:16;;;;;;;10.15;8.32;;;;;17.70;100676.00;;;;10252750;28;20717;-80
2023/06/18 02:46:18;;;;;;;11.10;7.57;;;;;17.70;100685.00;;;;10250102;28;20521;-77
2023/06/18 02:51:21;;;;;;;8.82;7.60;;;;;17.80;100673.00;;;;10241562;28;20236;-76
2023/06/18 02:56:23;;;;;;;9.18;8.02;;;;;17.80;100674.00;;;;10229756;28;20899;-77
2023/06/18 03:01:26;;;;;;;9.23;7.60;;;;;17.90;100670.00;;;;10207730;28;20207;-77
2023/06/18 03:06:28;;;;;;;9.43;7.38;;;;;18.00;100671.00;;;;10233191;28;20194;-76
2023/06/18 03:11:30;;;;;;;8.10;7.30;;;;;18.00;100675.00;;;;10231255;28;20221;-76
2023/06/18 03:16:34;;;;;;;8.43;7.68;;;;;18.00;100659.00;;;;10222930;28;20193;-77
2023/06/18 03:21:37;;;;;;;9.85;7.38;;;;;18.00;100650.00;;;;10215553;28;20206;-76
2023/06/18 03:26:41;;;;;;;10.07;6.22;;;;;18.00;100655.00;;;;10227393;28;20249;-78
2023/06/18 03:31:45;;;;;;;8.15;7.35;;;;;18.00;100662.00;;;;10245206;28;20630;-76
2023/06/18 03:36:48;;;;;;;8.18;7.30;;;;;18.00;100663.00;;;;10241176;28;20572;-83
2023/06/18 03:41:52;;;;;;;7.68;6.82;;;;;18.00;100662.00;;;;10217108;28;20232;-77
2023/06/18 03:46:55;;;;;;;8.48;7.22;;;;;18.10;100678.00;;;;10200964;29;20277;-84
2023/06/18 03:51:57;;;;;;;8.00;6.05;;;;;18.10;100679.00;;;;10212584;29;20217;-80
2023/06/18 03:57:01;;;;;;;6.82;6.22;;;;;18.30;100688.00;;;;10223442;28;20205;-80
2023/06/18 04:02:05;;;;;;;11.30;7.07;;;;;18.40;100687.00;;;;10187769;29;20783;-75
2023/06/18 04:07:07;;;;;;;7.47;6.78;;;;;18.60;100683.00;;;;10242114;28;20202;-79
2023/06/18 04:12:11;;;;;;;8.45;6.28;;;;;18.70;100681.00;;;;10218231;28;20273;-85
2023/06/18 04:17:13;;;;;;;7.15;6.45;;;;;18.80;100685.00;;;;10243214;28;20633;-75
2023/06/18 04:22:15;;;;;;;9.57;5.72;;;;;19.00;100685.00;;;;10240248;28;20615;-73
2023/06/18 04:27:18;;;;;;;6.93;5.22;;;;;19.20;100681.00;;;;10234154;28;20619;-74
2023/06/18 04:32:21;;;;;;;7.97;5.80;;;;;19.30;100710.00;;;;10225645;28;20623;-74
2023/06/18 04:37:26;;;;;;;6.65;5.95;;;;;19.20;100766.00;;;;10243614;28;20629;-75
2023/06/18 04:42:28;;;;;;;5.85;4.75;;;;;19.40;100760.00;;;;10225180;28;20687;-74
2023/06/18 04:47:32;;;;;;;8.45;5.00;;;;;19.50;100770.00;;;;10221559;28;20197;-75
2023/06/18 04:52:34;;;;;;;6.57;4.65;;;;;19.70;100769.00;;;;10224117;28;20213;-74
2023/06/18 04:57:37;;;;;;;6.30;4.90;;;;;19.80;100779.00;;;;10228795;28;20229;-74
2023/06/18 05:02:39;;;;;;;5.88;4.70;;;;;19.90;100790.00;;;;10221000;29;20260;-78
2023/06/18 05:07:42;;;;;;;5.68;4.72;;;;;20.00;100793.00;;;;10239722;28;20879;-76
2023/06/18 05:12:45;;;;;;;7.20;4.90;;;;;20.00;100798.00;;;;10216611;28;20257;-75
2023/06/18 05:17:48;;;;;;;8.50;5.38;;;;;20.00;100802.00;;;;10240475;28;20201;-74
2023/06/18 05:22:52;;;;;;;9.18;5.15;;;;;20.00;100809.00;;;;10248761;28;20739;-76
2023/06/18 05:27:55;;;;;;;7.60;5.25;;;;;20.10;100810.00;;;;10246997;28;20544;-75
2023/06/18 05:32:57;;;;;;;5.65;4.93;;;;;20.20;100813.00;;;;10248691;28;20568;-75
2023/06/18 05:37:59;;;;;;;7.20;5.00;;;;;20.10;100807.00;;;;10231581;28;20251;-75
2023/06/18 05:43:02;;;;;;;6.50;4.60;;;;;20.20;100807.00;;;;10241676;28;20198;-76
2023/06/18 05:48:12;;;;;;;6.90;5.30;;;;;20.40;100804.00;;;;10244665;28;20632;-76
2023/06/18 05:53:24;;;;;;;5.25;4.75;;;;;20.60;100806.00;;;;10241383;28;20220;-75
2023/06/18 05:58:27;;;;;;;6.13;5.40;;;;;21.00;100829.00;;;;10215179;29;20209;-76
2023/06/18 06:03:30;;;;;;;7.60;5.10;;;;;21.40;100815.00;;;;10232678;28;20211;-76
2023/06/18 06:08:32;;;;;;;6.00;4.78;;;;;21.70;100799.00;;;;10244545;28;20218;-76
2023/06/18 06:13:37;;;;;;;6.32;4.60;;;;;21.90;100807.00;;;;10244239;28;20483;-75
2023/06/18 06:18:43;;;;;;;8.55;4.68;;;;;22.30;100811.00;;;;10246649;28;20232;-77
2023/06/18 06:23:47;;;;;;;6.60;5.00;;;;;22.70;100799.00;;;;10241972;28;20199;-85
2023/06/18 06:28:49;;;;;;;6.25;5.13;;;;;23.10;100805.00;;;;10242258;28;20215;-78
2023/06/18 06:33:52;;;;;;;5.65;4.60;;;;;23.50;100804.00;;;;10241023;28;20277;-79
2023/06/18 06:38:58;;;;;;;7.38;5.28;;;;;23.70;100803.00;;;;10204821;29;20217;-77
2023/06/18 06:44:01;;;;;;;5.35;4.85;;;;;23.70;100801.00;;;;10204081;28;20830;-77
2023/06/18 06:49:10;;;;;;;7.97;5.20;;;;;23.50;100807.00;;;;10245000;28;20213;-77
2023/06/18 06:54:25;;;;;;;5.75;4.70;;;;;23.30;100808.00;;;;10237904;28;20213;-76
2023/06/18 06:59:28;;;;;;;5.07;4.57;;;;;22.90;100807.00;;;;10226550;28;20392;-76
2023/06/18 07:04:30;;;;;;;7.38;4.38;;;;;22.30;100807.00;;;;10227333;28;20305;-77
2023/06/18 07:09:34;;;;;;;5.68;4.88;;;;;21.80;100814.00;;;;10240934;28;20213;-76
2023/06/18 07:14:36;;;;;;;5.20;4.80;;;;;21.40;100808.00;;;;10240522;28;20224;-76
2023/06/18 07:19:38;;;;;;;6.10;5.50;;;;;21.20;100809.00;;;;10220350;28;20735;-78
2023/06/18 07:24:40;;;;;;;7.47;5.65;;;;;20.70;100797.00;;;;10221715;28;20212;-75
2023/06/18 07:29:42;;;;;;;5.90;5.40;;;;;20.50;100792.00;;;;10241591;28;20225;-76
2023/06/18 07:34:44;;;;;;;7.13;5.55;;;;;20.40;100790.00;;;;10216938;28;20697;-76
2023/06/18 07:39:46;;;;;;;6.55;6.00;;;;;20.40;100794.00;;;;10210389;28;20202;-83
2023/06/18 07:44:48;;;;;;;7.43;6.47;;;;;20.40;100787.00;;;;10230243;28;20194;-84
2023/06/18 07:49:51;;;;;;;7.13;6.15;;;;;20.40;100782.00;;;;10236469;28;20261;-76
2023/06/18 07:54:53;;;;;;;7.30;6.68;;;;;20.30;100779.00;;;;10245147;28;20296;-82
2023/06/18 07:59:55;;;;;;;7.07;6.38;;;;;20.50;100768.00;;;;10237601;28;20293;-82
2023/06/18 08:04:57;;;;;;;7.53;6.47;;;;;20.80;100763.00;;;;10241787;28;20213;-82
2023/06/18 08:09:59;;;;;;;7.18;6.47;;;;;20.90;100751.00;;;;10188352;29;20332;-76
2023/06/18 08:15:01;;;;;;;6.78;6.18;;;;;21.20;100751.00;;;;10215822;28;20211;-76
2023/06/18 08:20:05;;;;;;;8.50;7.28;;;;;21.40;100740.00;;;;10219113;28;20205;-80
2023/06/18 08:25:07;;;;;;;7.15;6.45;;;;;21.80;100745.00;;;;10228356;28;20615;-76
2023/06/18 08:30:10;;;;;;;8.90;6.30;;;;;22.40;100750.00;;;;10235006;28;20402;-84
2023/06/18 08:35:12;;;;;;;7.15;6.45;;;;;22.60;100744.00;;;;10224178;28;20604;-83
2023/06/18 08:40:14;;;;;;;7.97;6.93;;;;;22.90;100749.00;;;;10244253;28;20699;-82
2023/06/18 08:45:17;;;;;;;8.98;7.32;;;;;23.40;100755.00;;;;10205742;29;20289;-77
2023/06/18 08:50:19;;;;;;;8.07;7.25;;;;;23.70;100770.00;;;;10208748;28;20705;-75
2023/06/18 08:55:22;;;;;;;9.68;7.10;;;;;23.20;100759.00;;;;10208007;29;20623;-79
2023/06/18 09:00:25;;;;;;;7.45;6.78;;;;;22.60;100750.00;;;;10247657;28;20702;-76
2023/06/18 09:05:27;;;;;;;7.88;7.15;;;;;22.10;100754.00;;;;10246071;28;20297;-77
2023/06/18 09:10:29;;;;;;;8.18;7.38;;;;;22.00;100752.00;;;;10247200;28;20426;-81
2023/06/18 09:15:31;;;;;;;9.23;8.43;;;;;21.90;100753.00;;;;10238243;28;20261;-77
2023/06/18 09:20:35;;;;;;;9.48;8.07;;;;;22.30;100759.00;;;;10253127;28;20299;-76
2023/06/18 09:25:37;;;;;;;9.35;8.48;;;;;22.70;100765.00;;;;10222414;29;20214;-76
2023/06/18 09:30:49;;;;;;;10.18;8.77;;;;;22.80;100758.00;;;;10249023;28;20276;-85
2023/06/18 09:36:03;;;;;;;10.38;9.45;;;;;22.80;100751.00;;;;10223233;28;20253;-76
2023/06/18 09:41:18;;;;;;;10.27;9.15;;;;;22.80;100746.00;;;;10233414;28;20293;-76
2023/06/18 09:46:25;;;;;;;10.85;9.77;;;;;22.90;100747.00;;;;10248202;28;20221;-84
2023/06/18 09:51:27;;;;;;;12.10;10.88;;;;;22.90;100741.00;;;;10231705;28;20633;-85
2023/06/18 09:56:29;;;;;;;10.27;9.38;;;;;23.10;100746.00;;;;10229109;28;20620;-83
2023/06/18 10:01:45;;;;;;;10.32;9.40;;;;;23.40;100741.00;;;;10250376;28;20236;-83
2023/06/18 10:06:51;;;;;;;9.25;8.45;;;;;23.70;100748.00;;;;10248737;28;20292;-84
2023/06/18 10:11:56;;;;;;;9.95;9.00;;;;;24.30;100753.00;;;;10209677;29;20230;-77
2023/06/18 10:17:07;;;;;;;8.98;8.10;;;;;24.90;100744.00;;;;10206933;29;20197;-77
2023/06/18 10:22:11;;;;;;;9.57;8.68;;;;;25.50;100741.00;;;;10199864;29;20302;-82
2023/06/18 10:27:14;;;;;;;9.00;8.20;;;;;25.60;100737.00;;;;10244696;28;20853;-77
2023/06/18 10:32:17;;;;;;;8.50;7.68;;;;;25.60;100735.00;;;;10199312;29;20236;-78
2023/06/18 10:37:20;;;;;;;9.93;8.63;;;;;25.30;100734.00;;;;10229337;28;20194;-75
2023/06/18 10:42:24;;;;;;;12.15;9.52;;;;;24.80;100725.00;;;;10247558;28;20201;-77
2023/06/18 10:47:28;;;;;;;10.73;9.65;;;;;24.80;100739.00;;;;10245841;28;20241;-78
2023/06/18 10:52:44;;;;;;;9.93;8.07;;;;;25.20;100737.00;;;;10229827;28;20227;-79
2023/06/18 10:58:05;;;;;;;11.35;8.73;;;;;25.60;100714.00;;;;10247041;28;20658;-79
2023/06/18 11:03:16;;;;;;;9.20;8.32;;;;;25.80;100704.00;;;;10228770;28;20456;-79
2023/06/18 11:08:30;;;;;;;9.40;8.30;;;;;26.10;100707.00;;;;10230294;28;20686;-79
2023/06/18 11:13:37;;;;;;;9.48;8.60;;;;;26.40;100700.00;;;;10248169;28;20225;-79
2023/06/18 11:18:41;;;;;;;9.35;8.45;;;;;26.20;100693.00;;;;10221015;28;20206;-79
2023/06/18 11:23:44;;;;;;;10.68;9.70;;;;;26.00;100689.00;;;;10244201;28;20253;-80
2023/06/18 11:28:47;;;;;;;10.02;9.18;;;;;25.90;100682.00;;;;10247466;28;20209;-79
2023/06/18 11:33:49;;;;;;;10.18;9.10;;;;;25.30;100665.00;;;;10211978;28;20228;-80
2023/06/18 11:38:51;;;;;;;11.18;9.18;;;;;25.00;100651.00;;;;10206889;29;20665;-79
2023/06/18 11:43:53;;;;;;;10.38;9.05;;;;;25.30;100636.00;;;;10221285;28;20289;-79
2023/06/18 11:48:56;;;;;;;10.10;9.10;;;;;25.60;100635.00;;;;10245722;28;20211;-79
2023/06/18 11:53:58;;;;;;;11.05;9.20;;;;;25.80;100637.00;;;;10228506;28;20213;-80
2023/06/18 11:59:00;;;;;;;9.77;8.77;;;;;25.30;100633.00;;;;10212784;28;20554;-79
2023/06/18 12:04:06;;;;;;;9.80;8.90;;;;;25.70;100629.00;;;;10245594;28;20272;-79
2023/06/18 12:09:10;;;;;;;11.23;8.18;;;;;26.50;100639.00;;;;10245689;28;20222;-79
2023/06/18 12:14:37;;;;;;;8.70;7.90;;;;;27.50;100615.00;;;;10244868;28;20635;-78
2023/06/18 12:19:44;;;;;;;8.35;7.55;;;;;28.50;100614.00;;;;10205635;29;20233;-79
2023/06/18 12:24:46;;;;;;;8.73;7.15;;;;;29.00;100613.00;;;;10221740;28;20262;-80
2023/06/18 12:29:48;;;;;;;8.43;7.60;;;;;29.10;100614.00;;;;10242272;28;20691;-79
2023/06/18 12:34:50;;;;;;;7.97;7.18;;;;;28.80;100612.00;;;;10245548;28;20280;-80
2023/06/18 12:40:10;;;;;;;7.97;7.30;;;;;30.30;100596.00;;;;10244612;28;20221;-79
2023/06/18 12:45:13;;;;;;;7.15;6.55;;;;;29.60;100603.00;;;;10243643;28;20205;-80
2023/06/18 12:50:24;;;;;;;7.45;6.85;;;;;29.60;100613.00;;;;10231403;28;20676;-79
2023/06/18 12:55:27;;;;;;;8.80;7.15;;;;;31.00;100610.00;;;;10242381;28;20209;-77
2023/06/18 13:00:29;;;;;;;9.20;7.07;;;;;31.50;100612.00;;;;10211919;29;20664;-76
2023/06/18 13:05:32;;;;;;;7.85;7.07;;;;;32.10;100599.00;;;;10242168;28;20218;-76
2023/06/18 13:10:34;;;;;;;7.38;5.85;;;;;31.70;100595.00;;;;10225905;28;20256;-76
2023/06/18 13:15:36;;;;;;;6.47;5.80;;;;;30.50;100596.00;;;;10241407;28;20269;-77
2023/06/18 13:20:39;;;;;;;6.35;5.85;;;;;31.30;100591.00;;;;10217518;28;20206;-78
2023/06/18 13:25:41;;;;;;;6.22;5.60;;;;;31.90;100572.00;;;;10233533;28;20288;-78
2023/06/18 13:30:43;;;;;;;6.05;5.43;;;;;32.20;100575.00;;;;10243697;28;20221;-78
2023/06/18 13:35:46;;;;;;;5.40;4.90;;;;;32.00;100576.00;;;;10241994;28;20229;-77
2023/06/18 13:40:48;;;;;;;5.95;5.45;;;;;31.30;100556.00;;;;10241440;28;20205;-75
2023/06/18 13:45:50;;;;;;;5.50;4.95;;;;;32.50;100551.00;;;;10238772;28;20233;-76
2023/06/18 13:50:52;;;;;;;6.20;5.40;;;;;31.90;100536.00;;;;10246335;28;20533;-74
2023/06/18 13:55:54;;;;;;;5.45;4.95;;;;;32.70;100535.00;;;;10246487;28;20664;-74
2023/06/18 14:00:56;;;;;;;4.80;4.32;;;;;33.10;100525.00;;;;10231019;28;20730;-75
2023/06/18 14:17:28;;;;;;;5.57;5.15;;;;;31.50;100544.00;;;;11933068;23;21204;-81
2023/06/18 14:22:48;;;;;;;6.95;5.60;;;;;31.10;100535.00;;;;11335607;23;20695;31
2023/06/18 14:27:51;;;;;;;5.93;5.30;;;;;30.50;100533.00;;;;10852647;23;20465;-79
2023/06/18 14:32:53;;;;;;;8.70;5.20;;;;;29.90;100531.00;;;;10249278;28;20206;-79
2023/06/18 14:37:55;;;;;;;5.97;5.47;;;;;28.90;100536.00;;;;10244842;28;20792;-74
2023/06/18 14:48:42;;;;;;;5.85;5.25;;;;;27.40;100527.00;;;;10555642;23;20263;-75
2023/06/18 14:53:50;;;;;;;5.38;4.88;;;;;27.10;100515.00;;;;10254839;28;20672;-75
2023/06/18 14:58:52;;;;;;;6.53;5.93;;;;;27.00;100513.00;;;;10241378;28;20205;-76
2023/06/18 15:03:54;;;;;;;9.07;6.75;;;;;26.60;100509.00;;;;10240496;28;20372;-75
2023/06/18 15:08:57;;;;;;;6.53;5.82;;;;;26.20;100501.00;;;;10215099;28;20206;-75
2023/06/18 15:13:59;;;;;;;6.90;6.07;;;;;25.80;100506.00;;;;10236739;28;20225;-76
2023/06/18 15:19:01;;;;;;;6.50;5.90;;;;;25.70;100497.00;;;;10225925;28;20669;-75
2023/06/18 15:24:03;;;;;;;6.75;6.00;;;;;25.60;100490.00;;;;10196411;29;20194;-77
2023/06/18 15:29:05;;;;;;;6.57;5.38;;;;;25.60;100485.00;;;;10237444;28;20233;-77
2023/06/18 15:34:09;;;;;;;6.57;5.75;;;;;25.80;100486.00;;;;10244761;28;20743;-77
2023/06/18 15:39:12;;;;;;;8.65;5.95;;;;;26.10;100490.00;;;;10241696;28;20204;-77
2023/06/18 15:44:14;;;;;;;7.20;6.40;;;;;25.80;100480.00;;;;10211174;28;20496;-74
2023/06/18 15:49:17;;;;;;;6.88;6.22;;;;;25.50;100477.00;;;;10231778;28;20233;-75
2023/06/18 15:54:19;;;;;;;6.80;6.13;;;;;25.50;100465.00;;;;10240880;28;20953;-79
2023/06/18 15:59:21;;;;;;;7.13;6.45;;;;;25.50;100472.00;;;;10238580;28;20294;-78
2023/06/18 16:04:24;;;;;;;7.10;6.40;;;;;25.60;100460.00;;;;10238683;28;20201;-79
2023/06/18 16:09:26;;;;;;;7.68;6.30;;;;;25.70;100453.00;;;;10235856;28;20202;-85
2023/06/18 16:14:28;;;;;;;6.78;6.18;;;;;25.60;100458.00;;;;10225025;28;20621;-82
2023/06/18 16:19:30;;;;;;;7.45;6.75;;;;;25.60;100452.00;;;;10243087;28;20197;-79
2023/06/18 16:24:32;;;;;;;8.02;6.30;;;;;25.70;100445.00;;;;10206313;28;20198;-78
2023/06/18 16:29:34;;;;;;;7.13;6.53;;;;;25.70;100435.00;;;;10222518;28;20209;-75
2023/06/18 16:34:38;;;;;;;7.45;6.70;;;;;26.10;100422.00;;;;10236461;28;20209;-76
2023/06/18 16:39:40;;;;;;;7.93;6.32;;;;;26.40;100420.00;;;;10234680;28;20660;-76
2023/06/18 16:44:42;;;;;;;7.65;6.22;;;;;26.60;100415.00;;;;10204163;28;20257;-78
2023/06/18 16:49:44;;;;;;;10.75;6.57;;;;;26.80;100401.00;;;;10212737;28;20199;-79
2023/06/18 16:54:46;;;;;;;7.57;6.78;;;;;26.80;100381.00;;;;10209164;28;20560;-78
2023/06/18 16:59:48;;;;;;;6.85;6.35;;;;;26.90;100368.00;;;;10219552;28;20453;-79
2023/06/18 17:04:50;;;;;;;7.15;6.38;;;;;26.80;100367.00;;;;10209338;28;20230;-78
2023/06/18 17:09:52;;;;;;;8.85;6.97;;;;;26.80;100353.00;;;;10227895;28;20228;-78
2023/06/18 17:14:54;;;;;;;9.43;6.63;;;;;26.80;100339.00;;;;10237523;28;20220;-76
2023/06/18 17:19:57;;;;;;;7.10;6.40;;;;;26.70;100338.00;;;;10241320;28;20811;-77
2023/06/18 17:24:59;;;;;;;7.57;6.78;;;;;26.70;100337.00;;;;10268808;28;20205;-84
2023/06/18 17:30:02;;;;;;;7.82;6.30;;;;;26.70;100323.00;;;;10283376;28;20268;-83
2023/06/18 17:35:05;;;;;;;8.63;6.53;;;;;26.50;100315.00;;;;10225888;28;20205;-74
2023/06/18 17:40:08;;;;;;;9.40;6.43;;;;;26.30;100326.00;;;;10260069;28;20202;-85
2023/06/18 17:45:10;;;;;;;7.70;6.47;;;;;26.00;100321.00;;;;10241436;28;20206;-74
2023/06/18 17:50:12;;;;;;;6.93;5.65;;;;;25.90;100323.00;;;;10240252;28;20225;-75
2023/06/18 17:55:14;;;;;;;8.48;5.97;;;;;25.80;100330.00;;;;10237028;28;20799;-75
2023/06/18 18:00:17;;;;;;;8.05;6.72;;;;;25.70;100334.00;;;;10238882;28;20269;-74
2023/06/18 18:05:19;;;;;;;7.22;6.57;;;;;25.50;100339.00;;;;10224616;28;20209;-75
2023/06/18 18:10:22;;;;;;;9.85;6.60;;;;;25.40;100333.00;;;;10239721;28;20249;-75
2023/06/18 18:15:24;;;;;;;9.10;6.75;;;;;25.20;100343.00;;;;10205254;28;20203;-77
2023/06/18 18:20:26;;;;;;;8.20;6.90;;;;;25.00;100341.00;;;;10244915;28;20209;-79
2023/06/18 18:25:28;;;;;;;7.60;6.93;;;;;24.80;100336.00;;;;10241181;28;20205;-79
2023/06/18 18:30:31;;;;;;;7.32;6.63;;;;;24.70;100331.00;;;;10239747;28;20607;-79
2023/06/18 18:35:33;;;;;;;10.13;6.60;;;;;24.60;100343.00;;;;10216446;28;20206;-79
2023/06/18 18:40:35;;;;;;;8.60;6.75;;;;;24.40;100336.00;;;;10195048;29;20210;-78
2023/06/18 18:45:37;;;;;;;8.07;6.93;;;;;24.30;100333.00;;;;10240785;28;20209;-79
2023/06/18 18:50:40;;;;;;;7.95;7.10;;;;;24.20;100332.00;;;;10242084;28;20959;-79
2023/06/18 18:55:42;;;;;;;8.98;7.22;;;;;24.20;100342.00;;;;10241667;28;20243;-74
2023/06/18 19:00:45;;;;;;;7.88;7.18;;;;;24.10;100332.00;;;;10222604;28;20202;-79
2023/06/18 19:05:47;;;;;;;7.93;7.13;;;;;24.00;100341.00;;;;10209384;29;20557;-85
2023/06/18 19:10:49;;;;;;;8.90;6.82;;;;;23.80;100346.00;;;;10224629;29;20891;-75
2023/06/18 19:15:51;;;;;;;8.90;7.72;;;;;23.70;100351.00;;;;10225014;28;20770;-75
2023/06/18 19:20:54;;;;;;;8.52;7.30;;;;;23.60;100344.00;;;;10235108;28;20285;-75
2023/06/18 19:25:57;;;;;;;9.40;7.78;;;;;23.50;100346.00;;;;10219052;28;20735;-75
2023/06/18 19:30:59;;;;;;;11.25;8.40;;;;;23.10;100356.00;;;;10189206;28;20226;-80
2023/06/18 19:36:01;;;;;;;10.98;8.85;;;;;22.70;100370.00;;;;10238247;28;20224;-77
2023/06/18 19:41:04;;;;;;;9.60;8.60;;;;;22.30;100353.00;;;;10251461;28;20216;-77
2023/06/18 19:46:06;;;;;;;10.10;8.85;;;;;22.00;100359.00;;;;10229560;28;20206;-75
2023/06/18 19:51:08;;;;;;;12.10;9.45;;;;;21.80;100344.00;;;;10229439;28;20228;-81
2023/06/18 19:56:11;;;;;;;9.98;9.00;;;;;21.70;100341.00;;;;10232788;28;20210;-81
2023/06/18 20:01:13;;;;;;;10.52;9.43;;;;;21.70;100332.00;;;;10229858;28;20289;-80
2023/06/18 20:06:15;;;;;;;13.05;9.00;;;;;21.70;100319.00;;;;10233243;28;20197;-76
2023/06/18 20:11:17;;;;;;;11.35;9.48;;;;;21.70;100319.00;;;;10218284;28;20221;-73
2023/06/18 20:16:19;;;;;;;10.23;9.23;;;;;21.80;100326.00;;;;10228135;28;20639;-76
2023/06/18 20:21:22;;;;;;;14.93;8.98;;;;;21.80;100323.00;;;;10221811;28;20305;-75
2023/06/18 20:26:25;;;;;;;12.35;9.07;;;;;21.80;100316.00;;;;10224026;28;20304;-75
2023/06/18 20:31:27;;;;;;;14.73;8.48;;;;;21.90;100344.00;;;;10230612;28;20312;-76
2023/06/18 20:36:29;;;;;;;8.98;8.00;;;;;22.00;100335.00;;;;10220473;28;20451;-75
2023/06/18 20:41:31;;;;;;;8.15;7.35;;;;;22.20;100335.00;;;;10217860;28;20201;-78
2023/06/18 20:46:34;;;;;;;8.43;6.78;;;;;22.40;100317.00;;;;10233909;28;20212;-79
2023/06/18 20:51:36;;;;;;;9.02;6.55;;;;;22.50;100325.00;;;;10249288;28;20896;-78
2023/06/18 20:56:38;;;;;;;7.78;6.40;;;;;22.50;100318.00;;;;10251218;28;20206;-78
2023/06/18 21:01:41;;;;;;;11.98;6.43;;;;;22.50;100324.00;;;;10243239;28;20197;-74
2023/06/18 21:06:43;;;;;;;6.35;5.78;;;;;22.40;100298.00;;;;10257940;28;20246;-78
2023/06/18 21:11:45;;;;;;;6.72;5.00;;;;;22.30;100287.00;;;;10238981;28;20308;-78
2023/06/18 21:16:47;;;;;;;4.32;3.67;;;;;22.30;100302.00;;;;10239003;28;20276;-78
2023/06/18 21:21:49;;;;;;;5.80;3.90;;;;;22.20;100289.00;;;;10249503;28;20620;-79
2023/06/18 21:26:52;;;;;;;5.72;4.20;;;;;22.00;100289.00;;;;10257718;28;20209;-78
2023/06/18 21:31:56;;;;;;;4.35;3.78;;;;;21.80;100296.00;;;;10233358;28;20229;-79
2023/06/18 21:36:58;;;;;;;7.18;3.90;;;;;21.80;100281.00;;;;10246130;28;20212;-79
2023/06/18 21:42:00;;;;;;;4.30;3.55;;;;;21.70;100296.00;;;;10245263;28;20682;-78
2023/06/18 21:47:02;;;;;;;3.65;2.95;;;;;21.50;100313.00;;;;10253964;28;20612;-78
2023/06/18 21:52:04;;;;;;;4.75;4.25;;;;;21.50;100324.00;;;;10252161;28;20221;-79
2023/06/18 21:57:06;;;;;;;4.25;3.50;;;;;21.40;100335.00;;;;10234313;28;20285;-79
2023/06/18 22:02:09;;;;;;;3.88;3.47;;;;;21.30;100350.00;;;;10251384;28;20249;-79
2023/06/18 22:07:11;;;;;;;6.18;3.85;;;;;21.20;100360.00;;;;10246616;28;20209;-78
2023/06/18 22:12:13;;;;;;;5.80;4.03;;;;;21.00;100363.00;;;;10235297;28;20221;-78
2023/06/18 22:17:17;;;;;;;4.78;3.75;;;;;20.90;100366.00;;;;10244349;28;20867;-78
2023/06/18 22:22:19;;;;;;;8.50;3.50;;;;;20.80;100361.00;;;;10240319;28;20249;-79
2023/06/18 22:27:22;;;;;;;5.78;3.67;;;;;20.70;100359.00;;;;10245912;28;20723;-78
2023/06/18 22:32:24;;;;;;;4.45;3.47;;;;;20.50;100364.00;;;;10235361;28;20217;-78
2023/06/18 22:37:26;;;;;;;5.15;4.03;;;;;20.40;100358.00;;;;10245463;28;20199;-79
2023/06/18 22:42:28;;;;;;;4.35;3.65;;;;;20.30;100381.00;;;;10248806;28;20632;-75
2023/06/18 22:47:31;;;;;;;5.07;3.78;;;;;20.10;100371.00;;;;10243791;28;20196;-75
2023/06/18 22:52:33;;;;;;;4.70;3.60;;;;;20.00;100374.00;;;;10248462;28;20221;-75
2023/06/18 22:57:35;;;;;;;4.80;4.10;;;;;20.00;100371.00;;;;10250615;28;20616;-75
2023/06/18 23:02:39;;;;;;;5.15;3.90;;;;;20.00;100368.00;;;;10246854;28;20312;-76
2023/06/18 23:07:41;;;;;;;6.07;4.13;;;;;19.90;100377.00;;;;10223626;28;20851;-75
2023/06/18 23:12:43;;;;;;;5.15;3.70;;;;;19.80;100373.00;;;;10586952;23;20245;-79
2023/06/18 23:17:45;;;;;;;5.28;3.90;;;;;19.70;100380.00;;;;10282560;28;20277;-82
2023/06/18 23:22:47;;;;;;;4.68;3.55;;;;;19.60;100382.00;;;;10267507;28;20261;-77
2023/06/18 23:27:50;;;;;;;6.10;4.05;;;;;19.50;100376.00;;;;10241940;28;20265;-79
2023/06/18 23:32:52;;;;;;;4.38;3.30;;;;;19.50;100389.00;;;;10232426;28;20214;-76
2023/06/18 23:37:55;;;;;;;4.85;3.25;;;;;19.40;100392.00;;;;10205241;28;20690;-75
2023/06/18 23:42:57;;;;;;;5.03;3.95;;;;;19.40;100394.00;;;;10250391;28;20682;-77
2023/06/18 23:47:59;;;;;;;4.90;3.72;;;;;19.30;100402.00;;;;10262437;28;20237;-77
2023/06/18 23:53:01;;;;;;;6.47;3.92;;;;;19.20;100416.00;;;;10227413;28;20322;-76
2023/06/18 23:58:03;;;;;;;5.90;3.65;;;;;19.20;100412.00;;;;10237343;28;20201;-76
